sensor_id;sensor_type;location;lat;lon;timestamp;P1;durP1;ratioP1;P2;durP2;ratioP2
39078;SDS011;24829;49.208;12.080;2022-08-21T00:00:43;55.20;;;16.00;;
39078;SDS011;24829;49.208;12.080;2022-08-21T00:03:09;38.00;;;17.08;;
39078;SDS011;24829;49.208;12.080;2022-08-21T00:05:36;58.10;;;16.25;;
39078;SDS011;24829;49.208;12.080;2022-08-21T00:08:08;36.90;;;16.30;;
39078;SDS011;24829;49.208;12.080;2022-08-21T00:10:34;44.08;;;17.08;;
39078;SDS011;24829;49.208;12.080;2022-08-21T00:13:01;95.97;;;20.08;;
39078;SDS011;24829;49.208;12.080;2022-08-21T00:15:28;92.22;;;20.58;;
39078;SDS011;24829;49.208;12.080;2022-08-21T00:17:56;41.63;;;19.15;;
39078;SDS011;24829;49.208;12.080;2022-08-21T00:20:22;129.13;;;19.50;;
39078;SDS011;24829;49.208;12.080;2022-08-21T00:22:48;41.17;;;19.50;;
39078;SDS011;24829;49.208;12.080;2022-08-21T00:25:15;100.00;;;20.25;;
39078;SDS011;24829;49.208;12.080;2022-08-21T00:27:41;62.63;;;18.70;;
39078;SDS011;24829;49.208;12.080;2022-08-21T00:30:08;79.93;;;17.90;;
39078;SDS011;24829;49.208;12.080;2022-08-21T00:32:36;73.20;;;19.30;;
39078;SDS011;24829;49.208;12.080;2022-08-21T00:35:03;74.35;;;19.60;;
39078;SDS011;24829;49.208;12.080;2022-08-21T00:37:33;47.55;;;17.85;;
39078;SDS011;24829;49.208;12.080;2022-08-21T00:39:59;50.45;;;18.23;;
39078;SDS011;24829;49.208;12.080;2022-08-21T00:42:25;47.65;;;18.98;;
39078;SDS011;24829;49.208;12.080;2022-08-21T00:44:53;22.42;;;17.95;;
39078;SDS011;24829;49.208;12.080;2022-08-21T00:47:18;26.08;;;15.70;;
39078;SDS011;24829;49.208;12.080;2022-08-21T00:49:44;16.25;;;13.68;;
39078;SDS011;24829;49.208;12.080;2022-08-21T00:52:11;14.82;;;13.32;;
39078;SDS011;24829;49.208;12.080;2022-08-21T00:54:40;15.10;;;13.60;;
39078;SDS011;24829;49.208;12.080;2022-08-21T00:57:15;19.63;;;16.20;;
39078;SDS011;24829;49.208;12.080;2022-08-21T00:59:45;19.30;;;16.48;;
39078;SDS011;24829;49.208;12.080;2022-08-21T01:02:15;24.95;;;16.08;;
39078;SDS011;24829;49.208;12.080;2022-08-21T01:04:41;20.38;;;16.60;;
39078;SDS011;24829;49.208;12.080;2022-08-21T01:07:07;18.42;;;16.40;;
39078;SDS011;24829;49.208;12.080;2022-08-21T01:09:33;30.00;;;16.42;;
39078;SDS011;24829;49.208;12.080;2022-08-21T01:11:59;24.25;;;16.80;;
39078;SDS011;24829;49.208;12.080;2022-08-21T01:14:24;24.85;;;18.50;;
39078;SDS011;24829;49.208;12.080;2022-08-21T01:16:52;29.75;;;18.00;;
39078;SDS011;24829;49.208;12.080;2022-08-21T01:19:19;26.58;;;17.13;;
39078;SDS011;24829;49.208;12.080;2022-08-21T01:21:46;36.83;;;17.90;;
39078;SDS011;24829;49.208;12.080;2022-08-21T01:24:12;49.78;;;17.60;;
39078;SDS011;24829;49.208;12.080;2022-08-21T01:26:38;39.75;;;16.98;;
39078;SDS011;24829;49.208;12.080;2022-08-21T01:32:03;76.18;;;15.23;;
39078;SDS011;24829;49.208;12.080;2022-08-21T01:34:32;69.43;;;15.93;;
39078;SDS011;24829;49.208;12.080;2022-08-21T01:37:00;46.33;;;17.70;;
39078;SDS011;24829;49.208;12.080;2022-08-21T01:39:27;39.13;;;17.63;;
39078;SDS011;24829;49.208;12.080;2022-08-21T01:41:53;61.13;;;17.45;;
39078;SDS011;24829;49.208;12.080;2022-08-21T01:44:22;53.70;;;16.27;;
39078;SDS011;24829;49.208;12.080;2022-08-21T01:46:50;89.80;;;16.88;;
39078;SDS011;24829;49.208;12.080;2022-08-21T01:49:16;66.30;;;17.15;;
39078;SDS011;24829;49.208;12.080;2022-08-21T01:51:41;36.03;;;16.00;;
39078;SDS011;24829;49.208;12.080;2022-08-21T01:54:07;38.53;;;14.43;;
39078;SDS011;24829;49.208;12.080;2022-08-21T01:56:41;41.17;;;13.95;;
39078;SDS011;24829;49.208;12.080;2022-08-21T01:59:09;54.03;;;13.68;;
39078;SDS011;24829;49.208;12.080;2022-08-21T02:01:36;29.08;;;13.65;;
39078;SDS011;24829;49.208;12.080;2022-08-21T02:04:04;54.72;;;12.07;;
39078;SDS011;24829;49.208;12.080;2022-08-21T02:06:32;46.33;;;12.55;;
39078;SDS011;24829;49.208;12.080;2022-08-21T02:08:59;22.13;;;11.63;;
39078;SDS011;24829;49.208;12.080;2022-08-21T02:11:25;18.65;;;10.07;;
39078;SDS011;24829;49.208;12.080;2022-08-21T02:13:51;16.42;;;10.80;;
39078;SDS011;24829;49.208;12.080;2022-08-21T02:16:16;14.35;;;10.07;;
39078;SDS011;24829;49.208;12.080;2022-08-21T02:18:42;13.98;;;8.88;;
39078;SDS011;24829;49.208;12.080;2022-08-21T02:21:08;11.77;;;9.52;;
39078;SDS011;24829;49.208;12.080;2022-08-21T02:23:34;16.35;;;8.95;;
39078;SDS011;24829;49.208;12.080;2022-08-21T02:26:00;28.90;;;8.73;;
39078;SDS011;24829;49.208;12.080;2022-08-21T02:28:27;43.08;;;8.30;;
39078;SDS011;24829;49.208;12.080;2022-08-21T02:30:53;25.08;;;8.50;;
39078;SDS011;24829;49.208;12.080;2022-08-21T02:33:20;53.88;;;8.40;;
39078;SDS011;24829;49.208;12.080;2022-08-21T02:35:47;31.38;;;7.80;;
39078;SDS011;24829;49.208;12.080;2022-08-21T02:38:15;38.53;;;8.43;;
39078;SDS011;24829;49.208;12.080;2022-08-21T02:40:44;9.02;;;8.18;;
39078;SDS011;24829;49.208;12.080;2022-08-21T02:43:10;8.05;;;7.25;;
39078;SDS011;24829;49.208;12.080;2022-08-21T02:45:37;9.95;;;7.03;;
39078;SDS011;24829;49.208;12.080;2022-08-21T02:48:04;8.30;;;7.32;;
39078;SDS011;24829;49.208;12.080;2022-08-21T02:50:35;14.38;;;7.25;;
39078;SDS011;24829;49.208;12.080;2022-08-21T02:53:03;14.27;;;7.25;;
39078;SDS011;24829;49.208;12.080;2022-08-21T02:55:32;18.65;;;6.57;;
39078;SDS011;24829;49.208;12.080;2022-08-21T02:57:58;9.88;;;7.03;;
39078;SDS011;24829;49.208;12.080;2022-08-21T03:00:25;19.15;;;6.25;;
39078;SDS011;24829;49.208;12.080;2022-08-21T03:02:53;11.77;;;6.57;;
39078;SDS011;24829;49.208;12.080;2022-08-21T03:05:20;20.98;;;6.20;;
39078;SDS011;24829;49.208;12.080;2022-08-21T03:07:46;7.40;;;6.68;;
39078;SDS011;24829;49.208;12.080;2022-08-21T03:10:13;16.15;;;6.78;;
39078;SDS011;24829;49.208;12.080;2022-08-21T03:12:38;10.45;;;6.95;;
39078;SDS011;24829;49.208;12.080;2022-08-21T03:15:05;16.13;;;7.07;;
39078;SDS011;24829;49.208;12.080;2022-08-21T03:17:33;15.95;;;7.53;;
39078;SDS011;24829;49.208;12.080;2022-08-21T03:19:59;10.65;;;6.95;;
39078;SDS011;24829;49.208;12.080;2022-08-21T03:22:25;21.52;;;8.40;;
39078;SDS011;24829;49.208;12.080;2022-08-21T03:24:51;14.70;;;9.82;;
39078;SDS011;24829;49.208;12.080;2022-08-21T03:27:17;17.50;;;8.70;;
39078;SDS011;24829;49.208;12.080;2022-08-21T03:29:43;46.53;;;10.02;;
39078;SDS011;24829;49.208;12.080;2022-08-21T03:32:08;53.47;;;9.77;;
39078;SDS011;24829;49.208;12.080;2022-08-21T03:34:37;37.35;;;9.40;;
39078;SDS011;24829;49.208;12.080;2022-08-21T03:37:04;36.60;;;8.63;;
39078;SDS011;24829;49.208;12.080;2022-08-21T03:39:31;17.48;;;8.10;;
39078;SDS011;24829;49.208;12.080;2022-08-21T03:41:58;53.83;;;8.60;;
39078;SDS011;24829;49.208;12.080;2022-08-21T03:44:24;40.88;;;8.60;;
39078;SDS011;24829;49.208;12.080;2022-08-21T03:46:52;15.45;;;8.02;;
39078;SDS011;24829;49.208;12.080;2022-08-21T03:49:18;18.05;;;6.30;;
39078;SDS011;24829;49.208;12.080;2022-08-21T03:51:44;22.60;;;7.40;;
39078;SDS011;24829;49.208;12.080;2022-08-21T03:54:09;41.05;;;6.75;;
39078;SDS011;24829;49.208;12.080;2022-08-21T03:56:35;52.78;;;7.60;;
39078;SDS011;24829;49.208;12.080;2022-08-21T03:59:00;72.65;;;7.95;;
39078;SDS011;24829;49.208;12.080;2022-08-21T04:01:28;56.80;;;7.88;;
39078;SDS011;24829;49.208;12.080;2022-08-21T04:03:53;42.60;;;7.72;;
39078;SDS011;24829;49.208;12.080;2022-08-21T04:06:19;81.72;;;7.30;;
39078;SDS011;24829;49.208;12.080;2022-08-21T04:08:44;44.20;;;7.15;;
39078;SDS011;24829;49.208;12.080;2022-08-21T04:11:10;25.75;;;8.55;;
39078;SDS011;24829;49.208;12.080;2022-08-21T04:13:36;62.33;;;7.90;;
39078;SDS011;24829;49.208;12.080;2022-08-21T04:16:03;48.75;;;8.13;;
39078;SDS011;24829;49.208;12.080;2022-08-21T04:18:29;56.13;;;8.32;;
39078;SDS011;24829;49.208;12.080;2022-08-21T04:20:55;41.63;;;9.55;;
39078;SDS011;24829;49.208;12.080;2022-08-21T04:23:23;61.63;;;9.18;;
39078;SDS011;24829;49.208;12.080;2022-08-21T04:25:49;68.63;;;8.80;;
39078;SDS011;24829;49.208;12.080;2022-08-21T04:28:15;42.97;;;8.95;;
39078;SDS011;24829;49.208;12.080;2022-08-21T04:30:40;89.82;;;10.80;;
39078;SDS011;24829;49.208;12.080;2022-08-21T04:33:06;57.75;;;10.50;;
39078;SDS011;24829;49.208;12.080;2022-08-21T04:35:32;29.77;;;10.10;;
39078;SDS011;24829;49.208;12.080;2022-08-21T04:37:57;32.50;;;10.55;;
39078;SDS011;24829;49.208;12.080;2022-08-21T04:40:24;35.38;;;10.80;;
39078;SDS011;24829;49.208;12.080;2022-08-21T04:42:52;29.27;;;11.82;;
39078;SDS011;24829;49.208;12.080;2022-08-21T04:45:25;31.00;;;12.05;;
39078;SDS011;24829;49.208;12.080;2022-08-21T04:48:00;35.72;;;13.27;;
39078;SDS011;24829;49.208;12.080;2022-08-21T04:50:29;26.85;;;11.98;;
39078;SDS011;24829;49.208;12.080;2022-08-21T04:53:01;47.95;;;14.73;;
39078;SDS011;24829;49.208;12.080;2022-08-21T04:55:26;14.55;;;11.45;;
39078;SDS011;24829;49.208;12.080;2022-08-21T04:57:53;14.88;;;11.20;;
39078;SDS011;24829;49.208;12.080;2022-08-21T05:00:21;32.35;;;11.30;;
39078;SDS011;24829;49.208;12.080;2022-08-21T05:02:49;37.50;;;12.27;;
39078;SDS011;24829;49.208;12.080;2022-08-21T05:05:19;25.48;;;11.70;;
39078;SDS011;24829;49.208;12.080;2022-08-21T05:07:45;16.30;;;10.52;;
39078;SDS011;24829;49.208;12.080;2022-08-21T05:10:12;15.35;;;10.55;;
39078;SDS011;24829;49.208;12.080;2022-08-21T05:12:39;42.03;;;12.77;;
39078;SDS011;24829;49.208;12.080;2022-08-21T05:15:07;42.30;;;13.45;;
39078;SDS011;24829;49.208;12.080;2022-08-21T05:17:33;32.20;;;12.27;;
39078;SDS011;24829;49.208;12.080;2022-08-21T05:19:58;29.88;;;11.73;;
39078;SDS011;24829;49.208;12.080;2022-08-21T05:22:24;16.73;;;11.52;;
39078;SDS011;24829;49.208;12.080;2022-08-21T05:24:50;37.72;;;11.50;;
39078;SDS011;24829;49.208;12.080;2022-08-21T05:27:17;18.77;;;11.32;;
39078;SDS011;24829;49.208;12.080;2022-08-21T05:29:43;21.92;;;12.02;;
39078;SDS011;24829;49.208;12.080;2022-08-21T05:32:09;21.92;;;12.43;;
39078;SDS011;24829;49.208;12.080;2022-08-21T05:34:36;21.88;;;13.07;;
39078;SDS011;24829;49.208;12.080;2022-08-21T05:37:02;18.52;;;11.60;;
39078;SDS011;24829;49.208;12.080;2022-08-21T05:39:28;17.65;;;12.82;;
39078;SDS011;24829;49.208;12.080;2022-08-21T05:41:54;20.38;;;12.00;;
39078;SDS011;24829;49.208;12.080;2022-08-21T05:44:19;24.17;;;11.75;;
39078;SDS011;24829;49.208;12.080;2022-08-21T05:46:45;34.88;;;13.68;;
39078;SDS011;24829;49.208;12.080;2022-08-21T05:49:10;63.75;;;12.88;;
39078;SDS011;24829;49.208;12.080;2022-08-21T05:51:36;28.83;;;13.70;;
39078;SDS011;24829;49.208;12.080;2022-08-21T05:54:04;19.25;;;12.02;;
39078;SDS011;24829;49.208;12.080;2022-08-21T05:56:29;21.42;;;11.35;;
39078;SDS011;24829;49.208;12.080;2022-08-21T05:58:55;79.97;;;12.98;;
39078;SDS011;24829;49.208;12.080;2022-08-21T06:01:20;69.05;;;12.85;;
39078;SDS011;24829;49.208;12.080;2022-08-21T06:03:47;31.25;;;13.75;;
39078;SDS011;24829;49.208;12.080;2022-08-21T06:06:12;26.27;;;14.45;;
39078;SDS011;24829;49.208;12.080;2022-08-21T06:08:38;18.02;;;13.15;;
39078;SDS011;24829;49.208;12.080;2022-08-21T06:11:04;63.90;;;15.43;;
39078;SDS011;24829;49.208;12.080;2022-08-21T06:13:31;89.65;;;16.30;;
39078;SDS011;24829;49.208;12.080;2022-08-21T06:16:15;86.80;;;15.82;;
39078;SDS011;24829;49.208;12.080;2022-08-21T06:18:42;55.65;;;15.73;;
39078;SDS011;24829;49.208;12.080;2022-08-21T06:21:09;54.22;;;16.42;;
39078;SDS011;24829;49.208;12.080;2022-08-21T06:23:36;52.35;;;15.95;;
39078;SDS011;24829;49.208;12.080;2022-08-21T06:26:03;75.45;;;16.35;;
39078;SDS011;24829;49.208;12.080;2022-08-21T06:28:30;45.30;;;15.88;;
39078;SDS011;24829;49.208;12.080;2022-08-21T06:30:57;62.08;;;15.20;;
39078;SDS011;24829;49.208;12.080;2022-08-21T06:33:23;41.38;;;16.55;;
39078;SDS011;24829;49.208;12.080;2022-08-21T06:35:48;28.13;;;15.40;;
39078;SDS011;24829;49.208;12.080;2022-08-21T06:38:14;61.92;;;15.38;;
39078;SDS011;24829;49.208;12.080;2022-08-21T06:40:40;21.90;;;13.30;;
39078;SDS011;24829;49.208;12.080;2022-08-21T06:43:07;17.15;;;12.65;;
39078;SDS011;24829;49.208;12.080;2022-08-21T06:45:35;20.30;;;13.20;;
39078;SDS011;24829;49.208;12.080;2022-08-21T06:48:01;20.17;;;13.38;;
39078;SDS011;24829;49.208;12.080;2022-08-21T06:50:27;19.90;;;13.38;;
39078;SDS011;24829;49.208;12.080;2022-08-21T06:53:04;24.92;;;12.98;;
39078;SDS011;24829;49.208;12.080;2022-08-21T06:55:32;19.67;;;13.10;;
39078;SDS011;24829;49.208;12.080;2022-08-21T06:57:58;20.58;;;13.43;;
39078;SDS011;24829;49.208;12.080;2022-08-21T07:00:24;16.75;;;11.65;;
39078;SDS011;24829;49.208;12.080;2022-08-21T07:02:50;13.63;;;11.73;;
39078;SDS011;24829;49.208;12.080;2022-08-21T07:05:15;21.58;;;13.05;;
39078;SDS011;24829;49.208;12.080;2022-08-21T07:07:41;24.77;;;13.70;;
39078;SDS011;24829;49.208;12.080;2022-08-21T07:10:07;21.63;;;14.40;;
39078;SDS011;24829;49.208;12.080;2022-08-21T07:12:32;24.63;;;14.70;;
39078;SDS011;24829;49.208;12.080;2022-08-21T07:14:58;23.33;;;14.27;;
39078;SDS011;24829;49.208;12.080;2022-08-21T07:17:24;20.40;;;15.48;;
39078;SDS011;24829;49.208;12.080;2022-08-21T07:19:49;20.08;;;16.38;;
39078;SDS011;24829;49.208;12.080;2022-08-21T07:22:16;21.48;;;15.13;;
39078;SDS011;24829;49.208;12.080;2022-08-21T07:24:45;22.90;;;16.88;;
39078;SDS011;24829;49.208;12.080;2022-08-21T07:27:10;22.83;;;16.73;;
39078;SDS011;24829;49.208;12.080;2022-08-21T07:29:36;29.13;;;18.83;;
39078;SDS011;24829;49.208;12.080;2022-08-21T07:32:02;23.10;;;18.33;;
39078;SDS011;24829;49.208;12.080;2022-08-21T07:34:29;25.67;;;18.45;;
39078;SDS011;24829;49.208;12.080;2022-08-21T07:36:56;28.23;;;17.85;;
39078;SDS011;24829;49.208;12.080;2022-08-21T07:39:22;27.02;;;18.85;;
39078;SDS011;24829;49.208;12.080;2022-08-21T07:41:47;24.80;;;19.00;;
39078;SDS011;24829;49.208;12.080;2022-08-21T07:44:13;27.88;;;19.00;;
39078;SDS011;24829;49.208;12.080;2022-08-21T07:46:38;25.92;;;19.38;;
39078;SDS011;24829;49.208;12.080;2022-08-21T07:49:04;28.95;;;19.98;;
39078;SDS011;24829;49.208;12.080;2022-08-21T07:51:29;27.23;;;19.05;;
39078;SDS011;24829;49.208;12.080;2022-08-21T07:53:56;24.65;;;17.65;;
39078;SDS011;24829;49.208;12.080;2022-08-21T07:56:24;22.65;;;16.38;;
39078;SDS011;24829;49.208;12.080;2022-08-21T07:58:50;27.05;;;19.48;;
39078;SDS011;24829;49.208;12.080;2022-08-21T08:01:16;25.50;;;18.55;;
39078;SDS011;24829;49.208;12.080;2022-08-21T08:03:42;25.23;;;18.33;;
39078;SDS011;24829;49.208;12.080;2022-08-21T08:06:07;28.67;;;19.73;;
39078;SDS011;24829;49.208;12.080;2022-08-21T08:08:37;27.88;;;19.95;;
39078;SDS011;24829;49.208;12.080;2022-08-21T08:11:05;27.17;;;19.08;;
39078;SDS011;24829;49.208;12.080;2022-08-21T08:13:31;32.08;;;20.63;;
39078;SDS011;24829;49.208;12.080;2022-08-21T08:16:02;31.50;;;20.67;;
39078;SDS011;24829;49.208;12.080;2022-08-21T08:18:28;27.23;;;19.63;;
39078;SDS011;24829;49.208;12.080;2022-08-21T08:20:53;25.58;;;19.42;;
39078;SDS011;24829;49.208;12.080;2022-08-21T08:23:19;29.33;;;19.83;;
39078;SDS011;24829;49.208;12.080;2022-08-21T08:25:44;32.35;;;22.10;;
39078;SDS011;24829;49.208;12.080;2022-08-21T08:28:10;30.23;;;20.08;;
39078;SDS011;24829;49.208;12.080;2022-08-21T08:30:36;26.65;;;19.48;;
39078;SDS011;24829;49.208;12.080;2022-08-21T08:33:02;30.75;;;20.13;;
39078;SDS011;24829;49.208;12.080;2022-08-21T08:35:28;32.75;;;23.20;;
39078;SDS011;24829;49.208;12.080;2022-08-21T08:37:54;32.17;;;22.63;;
39078;SDS011;24829;49.208;12.080;2022-08-21T08:42:53;36.92;;;24.90;;
39078;SDS011;24829;49.208;12.080;2022-08-21T08:45:20;36.60;;;24.25;;
39078;SDS011;24829;49.208;12.080;2022-08-21T08:48:10;35.20;;;23.13;;
39078;SDS011;24829;49.208;12.080;2022-08-21T08:50:48;32.30;;;22.08;;
39078;SDS011;24829;49.208;12.080;2022-08-21T08:53:19;30.10;;;22.45;;
39078;SDS011;24829;49.208;12.080;2022-08-21T08:55:55;32.08;;;22.73;;
39078;SDS011;24829;49.208;12.080;2022-08-21T08:58:27;33.17;;;24.80;;
39078;SDS011;24829;49.208;12.080;2022-08-21T09:00:56;33.97;;;23.75;;
39078;SDS011;24829;49.208;12.080;2022-08-21T09:03:22;27.80;;;21.08;;
39078;SDS011;24829;49.208;12.080;2022-08-21T09:06:03;29.95;;;22.15;;
39078;SDS011;24829;49.208;12.080;2022-08-21T09:09:00;28.53;;;21.13;;
39078;SDS011;24829;49.208;12.080;2022-08-21T09:11:37;28.52;;;21.80;;
39078;SDS011;24829;49.208;12.080;2022-08-21T09:19:32;32.92;;;23.23;;
39078;SDS011;24829;49.208;12.080;2022-08-21T09:22:28;34.00;;;25.52;;
39078;SDS011;24829;49.208;12.080;2022-08-21T09:27:35;27.45;;;20.35;;
39078;SDS011;24829;49.208;12.080;2022-08-21T09:30:02;23.65;;;18.42;;
39078;SDS011;24829;49.208;12.080;2022-08-21T09:32:30;31.27;;;22.98;;
39078;SDS011;24829;49.208;12.080;2022-08-21T09:35:03;32.45;;;21.95;;
39078;SDS011;24829;49.208;12.080;2022-08-21T09:37:44;37.58;;;25.33;;
39078;SDS011;24829;49.208;12.080;2022-08-21T09:40:19;34.53;;;25.08;;
39078;SDS011;24829;49.208;12.080;2022-08-21T09:42:56;36.70;;;26.17;;
39078;SDS011;24829;49.208;12.080;2022-08-21T09:45:25;39.90;;;27.00;;
39078;SDS011;24829;49.208;12.080;2022-08-21T09:47:50;35.28;;;26.10;;
39078;SDS011;24829;49.208;12.080;2022-08-21T09:50:20;34.92;;;25.23;;
39078;SDS011;24829;49.208;12.080;2022-08-21T09:58:39;38.22;;;26.92;;
39078;SDS011;24829;49.208;12.080;2022-08-21T10:01:11;37.22;;;26.33;;
39078;SDS011;24829;49.208;12.080;2022-08-21T10:03:39;37.08;;;27.05;;
39078;SDS011;24829;49.208;12.080;2022-08-21T10:06:06;39.70;;;26.48;;
39078;SDS011;24829;49.208;12.080;2022-08-21T10:08:36;41.45;;;27.50;;
39078;SDS011;24829;49.208;12.080;2022-08-21T10:11:07;39.58;;;27.67;;
39078;SDS011;24829;49.208;12.080;2022-08-21T10:16:23;36.90;;;25.95;;
39078;SDS011;24829;49.208;12.080;2022-08-21T10:19:02;37.50;;;26.55;;
39078;SDS011;24829;49.208;12.080;2022-08-21T10:21:33;38.08;;;26.92;;
39078;SDS011;24829;49.208;12.080;2022-08-21T10:24:20;38.55;;;27.67;;
39078;SDS011;24829;49.208;12.080;2022-08-21T10:30:06;38.08;;;26.67;;
39078;SDS011;24829;49.208;12.080;2022-08-21T10:35:52;41.53;;;26.60;;
39078;SDS011;24829;49.208;12.080;2022-08-21T10:40:54;37.17;;;24.88;;
39078;SDS011;24829;49.208;12.080;2022-08-21T10:44:13;34.97;;;26.33;;
39078;SDS011;24829;49.208;12.080;2022-08-21T10:56:51;35.10;;;25.85;;
39078;SDS011;24829;49.208;12.080;2022-08-21T10:59:28;34.50;;;25.40;;
39078;SDS011;24829;49.208;12.080;2022-08-21T11:04:59;29.33;;;23.65;;
39078;SDS011;24829;49.208;12.080;2022-08-21T11:09:52;29.90;;;22.95;;
39078;SDS011;24829;49.208;12.080;2022-08-21T11:23:43;29.58;;;22.02;;
39078;SDS011;24829;49.208;12.080;2022-08-21T11:26:39;25.83;;;21.42;;
39078;SDS011;24829;49.208;12.080;2022-08-21T11:29:29;24.25;;;19.60;;
39078;SDS011;24829;49.208;12.080;2022-08-21T11:37:49;22.15;;;18.30;;
39078;SDS011;24829;49.208;12.080;2022-08-21T11:43:11;18.08;;;14.82;;
39078;SDS011;24829;49.208;12.080;2022-08-21T11:45:54;20.42;;;16.73;;
39078;SDS011;24829;49.208;12.080;2022-08-21T11:50:58;16.70;;;14.85;;
39078;SDS011;24829;49.208;12.080;2022-08-21T11:56:08;16.80;;;14.88;;
39078;SDS011;24829;49.208;12.080;2022-08-21T11:58:45;15.13;;;13.57;;
39078;SDS011;24829;49.208;12.080;2022-08-21T12:01:37;18.52;;;13.93;;
39078;SDS011;24829;49.208;12.080;2022-08-21T12:04:29;14.95;;;13.35;;
39078;SDS011;24829;49.208;12.080;2022-08-21T12:06:54;14.13;;;12.63;;
39078;SDS011;24829;49.208;12.080;2022-08-21T12:11:50;14.98;;;12.50;;
39078;SDS011;24829;49.208;12.080;2022-08-21T12:14:41;14.00;;;12.57;;
39078;SDS011;24829;49.208;12.080;2022-08-21T12:17:20;13.13;;;11.82;;
39078;SDS011;24829;49.208;12.080;2022-08-21T12:20:15;12.05;;;10.90;;
39078;SDS011;24829;49.208;12.080;2022-08-21T12:22:49;12.15;;;10.85;;
39078;SDS011;24829;49.208;12.080;2022-08-21T12:25:36;12.95;;;10.48;;
39078;SDS011;24829;49.208;12.080;2022-08-21T12:28:07;10.38;;;9.38;;
39078;SDS011;24829;49.208;12.080;2022-08-21T12:30:40;10.20;;;9.20;;
39078;SDS011;24829;49.208;12.080;2022-08-21T12:36:09;9.23;;;8.35;;
39078;SDS011;24829;49.208;12.080;2022-08-21T12:41:18;9.65;;;8.70;;
39078;SDS011;24829;49.208;12.080;2022-08-21T12:44:10;9.38;;;8.48;;
39078;SDS011;24829;49.208;12.080;2022-08-21T12:46:42;9.65;;;8.02;;
39078;SDS011;24829;49.208;12.080;2022-08-21T12:49:30;9.45;;;8.45;;
39078;SDS011;24829;49.208;12.080;2022-08-21T12:54:32;9.20;;;7.25;;
39078;SDS011;24829;49.208;12.080;2022-08-21T12:57:05;6.80;;;5.63;;
39078;SDS011;24829;49.208;12.080;2022-08-21T12:59:32;11.40;;;8.52;;
39078;SDS011;24829;49.208;12.080;2022-08-21T13:02:02;8.27;;;7.28;;
39078;SDS011;24829;49.208;12.080;2022-08-21T13:04:39;11.77;;;8.35;;
39078;SDS011;24829;49.208;12.080;2022-08-21T13:07:07;7.40;;;6.65;;
39078;SDS011;24829;49.208;12.080;2022-08-21T13:09:36;6.72;;;5.47;;
39078;SDS011;24829;49.208;12.080;2022-08-21T13:12:16;6.25;;;5.65;;
39078;SDS011;24829;49.208;12.080;2022-08-21T13:14:44;5.50;;;4.70;;
39078;SDS011;24829;49.208;12.080;2022-08-21T13:17:12;6.15;;;5.55;;
39078;SDS011;24829;49.208;12.080;2022-08-21T13:19:40;6.00;;;5.40;;
39078;SDS011;24829;49.208;12.080;2022-08-21T13:22:11;5.53;;;5.03;;
39078;SDS011;24829;49.208;12.080;2022-08-21T13:24:38;6.53;;;5.75;;
39078;SDS011;24829;49.208;12.080;2022-08-21T13:27:15;5.30;;;4.60;;
39078;SDS011;24829;49.208;12.080;2022-08-21T13:29:43;5.28;;;3.85;;
39078;SDS011;24829;49.208;12.080;2022-08-21T13:32:13;3.50;;;3.00;;
39078;SDS011;24829;49.208;12.080;2022-08-21T13:34:48;5.07;;;3.22;;
39078;SDS011;24829;49.208;12.080;2022-08-21T13:37:15;4.45;;;4.05;;
39078;SDS011;24829;49.208;12.080;2022-08-21T13:39:40;4.30;;;3.78;;
39078;SDS011;24829;49.208;12.080;2022-08-21T13:42:08;6.75;;;3.88;;
39078;SDS011;24829;49.208;12.080;2022-08-21T13:44:41;5.18;;;4.13;;
39078;SDS011;24829;49.208;12.080;2022-08-21T13:47:09;3.92;;;3.38;;
39078;SDS011;24829;49.208;12.080;2022-08-21T13:49:47;4.88;;;3.70;;
39078;SDS011;24829;49.208;12.080;2022-08-21T13:52:23;3.65;;;3.10;;
39078;SDS011;24829;49.208;12.080;2022-08-21T13:54:55;5.65;;;4.13;;
39078;SDS011;24829;49.208;12.080;2022-08-21T13:57:25;6.13;;;4.07;;
39078;SDS011;24829;49.208;12.080;2022-08-21T14:00:15;4.10;;;3.70;;
39078;SDS011;24829;49.208;12.080;2022-08-21T14:02:44;3.67;;;3.17;;
39078;SDS011;24829;49.208;12.080;2022-08-21T14:05:20;4.13;;;2.80;;
39078;SDS011;24829;49.208;12.080;2022-08-21T14:07:50;3.60;;;2.97;;
39078;SDS011;24829;49.208;12.080;2022-08-21T14:10:22;4.13;;;3.40;;
39078;SDS011;24829;49.208;12.080;2022-08-21T14:12:49;4.07;;;3.35;;
39078;SDS011;24829;49.208;12.080;2022-08-21T14:15:19;4.05;;;3.65;;
39078;SDS011;24829;49.208;12.080;2022-08-21T14:20:29;5.88;;;3.35;;
39078;SDS011;24829;49.208;12.080;2022-08-21T14:22:57;4.88;;;3.30;;
39078;SDS011;24829;49.208;12.080;2022-08-21T14:30:33;3.22;;;2.92;;
39078;SDS011;24829;49.208;12.080;2022-08-21T14:33:01;3.00;;;2.70;;
39078;SDS011;24829;49.208;12.080;2022-08-21T14:35:28;5.75;;;3.40;;
39078;SDS011;24829;49.208;12.080;2022-08-21T14:37:54;5.68;;;3.00;;
39078;SDS011;24829;49.208;12.080;2022-08-21T14:40:20;3.00;;;2.47;;
39078;SDS011;24829;49.208;12.080;2022-08-21T14:42:47;3.28;;;2.97;;
39078;SDS011;24829;49.208;12.080;2022-08-21T14:45:23;3.33;;;2.80;;
39078;SDS011;24829;49.208;12.080;2022-08-21T14:47:55;3.40;;;2.92;;
39078;SDS011;24829;49.208;12.080;2022-08-21T14:50:21;3.17;;;2.78;;
39078;SDS011;24829;49.208;12.080;2022-08-21T14:52:47;3.97;;;2.90;;
39078;SDS011;24829;49.208;12.080;2022-08-21T14:55:17;3.00;;;2.30;;
39078;SDS011;24829;49.208;12.080;2022-08-21T14:57:44;4.10;;;2.33;;
39078;SDS011;24829;49.208;12.080;2022-08-21T15:00:16;2.83;;;2.33;;
39078;SDS011;24829;49.208;12.080;2022-08-21T15:05:10;3.00;;;2.28;;
39078;SDS011;24829;49.208;12.080;2022-08-21T15:07:37;2.80;;;2.22;;
39078;SDS011;24829;49.208;12.080;2022-08-21T15:10:03;2.53;;;2.05;;
39078;SDS011;24829;49.208;12.080;2022-08-21T15:12:29;2.65;;;2.20;;
39078;SDS011;24829;49.208;12.080;2022-08-21T15:14:55;3.53;;;2.22;;
39078;SDS011;24829;49.208;12.080;2022-08-21T15:17:21;3.03;;;2.30;;
39078;SDS011;24829;49.208;12.080;2022-08-21T15:19:46;2.30;;;1.80;;
39078;SDS011;24829;49.208;12.080;2022-08-21T15:22:12;3.17;;;2.00;;
39078;SDS011;24829;49.208;12.080;2022-08-21T15:24:38;2.50;;;1.83;;
39078;SDS011;24829;49.208;12.080;2022-08-21T15:27:04;2.83;;;2.08;;
39078;SDS011;24829;49.208;12.080;2022-08-21T15:29:32;5.47;;;2.67;;
39078;SDS011;24829;49.208;12.080;2022-08-21T15:31:59;2.60;;;2.08;;
39078;SDS011;24829;49.208;12.080;2022-08-21T15:34:28;2.63;;;1.75;;
39078;SDS011;24829;49.208;12.080;2022-08-21T15:36:55;3.30;;;2.10;;
39078;SDS011;24829;49.208;12.080;2022-08-21T15:39:22;2.63;;;2.03;;
39078;SDS011;24829;49.208;12.080;2022-08-21T15:41:48;3.38;;;2.60;;
39078;SDS011;24829;49.208;12.080;2022-08-21T15:44:14;4.50;;;2.25;;
39078;SDS011;24829;49.208;12.080;2022-08-21T15:46:41;4.18;;;2.22;;
39078;SDS011;24829;49.208;12.080;2022-08-21T15:49:07;2.92;;;2.47;;
39078;SDS011;24829;49.208;12.080;2022-08-21T15:51:33;3.70;;;2.53;;
39078;SDS011;24829;49.208;12.080;2022-08-21T15:53:59;2.42;;;2.00;;
39078;SDS011;24829;49.208;12.080;2022-08-21T15:56:26;2.58;;;2.10;;
39078;SDS011;24829;49.208;12.080;2022-08-21T15:59:01;3.67;;;2.38;;